createdAt,value
2018-07-03T00:02:27.722Z,59.00
2018-07-03T00:05:02.055Z,59.70
2018-07-03T00:07:42.536Z,59.60
2018-07-03T00:10:20.461Z,59.60
2018-07-03T00:12:54.496Z,59.70
2018-07-03T00:15:31.498Z,59.70
2018-07-03T00:18:05.820Z,59.50
2018-07-03T00:20:44.044Z,60.20
2018-07-03T00:23:18.098Z,60.00
2018-07-03T00:25:52.666Z,60.30
2018-07-03T00:28:26.667Z,61.50
2018-07-03T00:31:10.016Z,61.70
2018-07-03T00:36:49.336Z,61.40
2018-07-03T00:39:19.919Z,62.00
2018-07-03T00:41:51.286Z,62.00
2018-07-03T00:46:52.011Z,61.60
2018-07-03T00:49:21.958Z,61.90
2018-07-03T00:51:51.906Z,61.70
2018-07-03T00:54:22.100Z,62.20
2018-07-03T00:56:52.312Z,62.20
2018-07-03T00:59:22.244Z,62.10
2018-07-03T01:01:52.245Z,62.20
2018-07-03T01:04:22.588Z,61.90
2018-07-03T01:06:52.419Z,61.70
2018-07-03T01:09:22.565Z,61.90
2018-07-03T01:11:53.428Z,61.90
2018-07-03T01:14:23.787Z,62.40
2018-07-03T01:16:54.367Z,62.00
2018-07-03T01:19:24.224Z,61.30
2018-07-03T01:21:54.315Z,62.40
2018-07-03T01:24:24.074Z,62.50
2018-07-03T01:26:53.971Z,62.20
2018-07-03T01:29:23.912Z,62.20
2018-07-03T01:31:54.545Z,61.90
2018-07-03T01:34:24.320Z,60.90
2018-07-03T01:36:54.998Z,60.50
2018-07-03T01:39:25.479Z,60.40
2018-07-03T01:44:26.711Z,60.20
2018-07-03T01:46:57.261Z,61.90
2018-07-03T01:49:28.960Z,61.10
2018-07-03T01:54:29.769Z,61.10
2018-07-03T01:57:00.018Z,61.70
2018-07-03T02:04:41.849Z,60.80
2018-07-03T02:07:11.827Z,61.50
2018-07-03T02:09:41.991Z,61.70
2018-07-03T02:12:12.066Z,61.10
2018-07-03T02:17:19.051Z,60.60
2018-07-03T02:19:49.030Z,61.00
2018-07-03T02:22:19.273Z,61.30
2018-07-03T02:27:22.759Z,61.70
2018-07-03T02:34:53.512Z,62.40
2018-07-03T02:37:24.127Z,62.90
2018-07-03T02:39:55.594Z,62.50
2018-07-03T02:42:29.643Z,62.70
2018-07-03T02:47:29.775Z,62.10
2018-07-03T02:50:00.657Z,62.10
2018-07-03T02:52:30.950Z,62.30
2018-07-03T02:55:00.996Z,62.20
2018-07-03T02:57:31.143Z,63.00
2018-07-03T03:00:01.614Z,63.00
2018-07-03T03:02:31.800Z,62.70
2018-07-03T03:05:02.257Z,62.70
2018-07-03T03:07:32.550Z,63.00
2018-07-03T03:10:02.745Z,63.60
2018-07-03T03:12:33.385Z,62.70
2018-07-03T03:15:04.317Z,62.20
2018-07-03T03:17:34.464Z,62.50
2018-07-03T03:20:04.670Z,62.50
2018-07-03T03:22:53.637Z,62.80
2018-07-03T03:25:32.599Z,62.70
2018-07-03T03:28:23.815Z,63.50
2018-07-03T03:31:04.509Z,63.50
2018-07-03T03:33:44.930Z,63.00
2018-07-03T03:36:24.926Z,62.60
2018-07-03T03:39:11.482Z,62.60
2018-07-03T03:41:47.028Z,63.30
2018-07-03T03:44:26.463Z,63.20
2018-07-03T03:46:59.794Z,63.20
2018-07-03T03:52:13.835Z,63.00
2018-07-03T04:00:18.362Z,62.90
2018-07-03T04:02:54.504Z,62.80
2018-07-03T04:05:32.662Z,62.50
2018-07-03T04:08:10.800Z,62.90
2018-07-03T04:10:45.459Z,62.60
2018-07-03T04:13:22.242Z,62.70
2018-07-03T04:15:58.800Z,62.20
2018-07-03T04:26:42.399Z,62.90
2018-07-03T04:29:25.151Z,63.30
2018-07-03T04:32:09.630Z,62.50
2018-07-03T04:34:49.559Z,62.60
2018-07-03T04:37:22.976Z,62.80
2018-07-03T04:40:05.158Z,62.90
2018-07-03T04:42:50.347Z,62.70
2018-07-03T04:45:32.848Z,62.70
2018-07-03T04:50:54.291Z,63.30
2018-07-03T04:53:29.885Z,63.00
2018-07-03T04:56:07.286Z,63.10
2018-07-03T04:58:47.250Z,63.30
2018-07-03T05:01:28.308Z,63.00
2018-07-03T05:04:04.661Z,62.70
2018-07-03T05:06:42.935Z,62.80
2018-07-03T05:09:20.696Z,64.00
2018-07-03T05:14:30.795Z,63.40
2018-07-03T05:17:14.370Z,61.50
2018-07-03T05:19:54.407Z,61.50
2018-07-03T05:22:30.528Z,63.50
2018-07-03T05:25:09.388Z,62.70
2018-07-03T05:27:47.404Z,63.30
2018-07-03T05:30:24.983Z,65.30
2018-07-03T05:33:02.699Z,64.00
2018-07-03T05:35:54.569Z,64.90
2018-07-03T05:38:41.985Z,63.80
2018-07-03T05:44:03.936Z,63.40
2018-07-03T05:46:42.261Z,61.50
2018-07-03T05:52:04.492Z,62.10
2018-07-03T05:54:42.201Z,61.70
2018-07-03T05:57:24.996Z,62.30
2018-07-03T06:00:03.420Z,61.70
2018-07-03T06:05:33.159Z,61.80
2018-07-03T06:08:11.915Z,62.10
2018-07-03T06:10:52.526Z,62.60
2018-07-03T06:13:30.863Z,61.20
2018-07-03T06:16:14.699Z,62.00
2018-07-03T06:18:59.011Z,61.70
2018-07-03T06:21:36.933Z,60.90
2018-07-03T06:24:17.137Z,59.90
2018-07-03T06:29:32.232Z,59.20
2018-07-03T06:32:08.105Z,60.00
2018-07-03T06:34:44.951Z,59.60
2018-07-03T06:37:25.790Z,59.20
2018-07-03T06:40:06.789Z,59.20
2018-07-03T06:42:45.142Z,59.40
2018-07-03T06:45:23.121Z,59.10
2018-07-03T06:50:46.678Z,59.60
2018-07-03T06:53:31.304Z,59.40
2018-07-03T06:56:11.828Z,58.50
2018-07-03T06:58:53.792Z,58.90
2018-07-03T07:01:43.224Z,57.70
2018-07-03T07:04:27.537Z,58.10
2018-07-03T07:07:06.309Z,56.70
2018-07-03T07:09:49.926Z,57.00
2018-07-03T07:12:31.145Z,57.30
2018-07-03T07:15:13.361Z,56.20
2018-07-03T07:17:51.817Z,56.20
2018-07-03T07:20:35.662Z,55.60
2018-07-03T07:23:12.206Z,56.50
2018-07-03T07:25:58.906Z,54.40
2018-07-03T07:31:30.508Z,53.60
2018-07-03T07:34:09.205Z,54.40
2018-07-03T07:36:44.880Z,54.10
2018-07-03T07:39:23.899Z,54.70
2018-07-03T07:42:05.570Z,54.90
2018-07-03T07:44:42.266Z,52.50
2018-07-03T07:47:21.831Z,53.00
2018-07-03T07:50:04.047Z,53.80
2018-07-03T07:52:43.179Z,54.80
2018-07-03T07:57:58.143Z,54.30
2018-07-03T08:00:34.953Z,53.20
2018-07-03T08:03:11.995Z,54.80
2018-07-03T08:05:53.805Z,53.70
2018-07-03T08:08:34.104Z,51.70
2018-07-03T08:11:16.981Z,49.00
2018-07-03T08:13:53.891Z,50.80
2018-07-03T08:16:32.077Z,53.10
2018-07-03T08:21:50.076Z,52.80
2018-07-03T08:24:27.888Z,53.60
2018-07-03T08:27:09.769Z,51.70
2018-07-03T08:29:53.033Z,51.40
2018-07-03T08:32:36.687Z,52.20
2018-07-03T08:37:57.179Z,53.00
2018-07-03T08:40:32.015Z,52.00
2018-07-03T08:43:10.645Z,51.90
2018-07-03T08:45:48.041Z,52.20
2018-07-03T08:48:32.014Z,52.70
2018-07-03T08:51:11.243Z,52.60
2018-07-03T08:53:52.712Z,51.90
2018-07-03T08:56:31.166Z,49.40
2018-07-03T08:59:07.118Z,49.50
2018-07-03T09:04:20.337Z,49.20
2018-07-03T09:06:59.986Z,49.30
2018-07-03T09:09:42.917Z,49.90
2018-07-03T09:12:21.111Z,50.00
2018-07-03T09:17:47.218Z,50.90
2018-07-03T09:20:28.934Z,48.30
2018-07-03T09:25:46.653Z,51.00
2018-07-03T09:28:22.568Z,52.50
2018-07-03T09:30:59.054Z,52.00
2018-07-03T09:33:35.488Z,52.20
2018-07-03T09:36:14.002Z,52.40
2018-07-03T09:38:50.981Z,52.80
2018-07-03T09:41:28.385Z,51.30
2018-07-03T09:44:10.985Z,51.00
2018-07-03T09:46:50.871Z,53.40
2018-07-03T09:49:31.209Z,52.60
2018-07-03T09:52:08.822Z,52.60
2018-07-03T09:54:45.425Z,52.50
2018-07-03T09:57:29.753Z,52.60
2018-07-03T10:00:05.530Z,52.40
2018-07-03T10:02:44.690Z,52.70
2018-07-03T10:05:22.454Z,53.40
2018-07-03T10:07:59.129Z,53.00
2018-07-03T10:10:35.937Z,52.90
2018-07-03T10:13:14.399Z,54.40
2018-07-03T10:15:53.347Z,54.30
2018-07-03T10:18:32.517Z,53.80
2018-07-03T10:21:09.014Z,51.90
2018-07-03T10:23:45.392Z,51.10
2018-07-03T10:29:03.624Z,52.40
2018-07-03T10:31:43.903Z,52.40
2018-07-03T10:37:15.819Z,51.20
2018-07-03T10:40:00.277Z,52.30
2018-07-03T10:42:41.766Z,50.10
2018-07-03T10:45:18.714Z,50.60
2018-07-03T10:50:38.917Z,50.70
2018-07-03T10:53:20.171Z,50.30
2018-07-03T10:55:55.002Z,51.40
2018-07-03T10:58:34.083Z,50.50
2018-07-03T11:03:46.747Z,51.70
2018-07-03T11:06:29.305Z,50.70
2018-07-03T11:09:05.816Z,50.80
2018-07-03T11:11:40.222Z,52.40
2018-07-03T11:14:21.797Z,52.30
2018-07-03T11:17:00.100Z,51.80
2018-07-03T11:19:40.407Z,51.70
2018-07-03T11:22:18.386Z,51.30
2018-07-03T11:24:54.897Z,52.30
2018-07-03T11:30:19.017Z,51.70
2018-07-03T11:32:54.451Z,52.20
2018-07-03T11:35:28.548Z,52.30
2018-07-03T11:38:11.711Z,52.80
2018-07-03T11:40:49.337Z,51.10
2018-07-03T11:43:29.958Z,50.50
2018-07-03T11:46:11.502Z,50.20
2018-07-03T11:48:50.557Z,50.10
2018-07-03T11:51:28.302Z,49.40
2018-07-03T11:54:09.160Z,48.60
2018-07-03T11:56:45.068Z,50.00
2018-07-03T11:59:26.358Z,50.90
2018-07-03T12:02:09.473Z,51.80
2018-07-03T12:04:54.964Z,49.70
2018-07-03T12:07:32.757Z,49.00
2018-07-03T12:10:19.525Z,49.10
2018-07-03T12:12:59.081Z,49.00
2018-07-03T12:15:37.358Z,50.10
2018-07-03T12:18:21.425Z,49.50
2018-07-03T12:20:55.750Z,49.60
2018-07-03T12:23:39.966Z,49.20
2018-07-03T12:26:17.734Z,48.70
2018-07-03T12:28:59.175Z,48.80
2018-07-03T12:31:34.418Z,49.10
2018-07-03T12:34:09.310Z,47.90
2018-07-03T12:36:49.697Z,47.60
2018-07-03T12:39:35.211Z,48.90
2018-07-03T12:42:14.076Z,48.60
2018-07-03T12:44:49.977Z,49.70
2018-07-03T12:47:25.743Z,48.80
2018-07-03T12:52:44.152Z,49.40
2018-07-03T12:55:18.450Z,47.70
2018-07-03T12:57:53.926Z,49.20
2018-07-03T13:00:37.295Z,48.70
2018-07-03T13:03:16.501Z,48.10
2018-07-03T13:08:33.895Z,46.60
2018-07-03T13:11:16.516Z,48.80
2018-07-03T13:13:54.323Z,48.30
2018-07-03T13:16:31.281Z,49.20
2018-07-03T13:19:14.689Z,47.10
2018-07-03T13:21:56.528Z,47.50
2018-07-03T13:32:32.442Z,47.90
2018-07-03T13:35:18.287Z,47.40
2018-07-03T13:38:03.889Z,46.70
2018-07-03T13:40:39.983Z,46.70
2018-07-03T13:43:18.866Z,48.10
2018-07-03T13:46:01.990Z,46.40
2018-07-03T13:48:40.932Z,48.00
2018-07-03T13:51:23.916Z,45.40
2018-07-03T13:54:00.040Z,47.10
2018-07-03T13:56:32.569Z,45.30
2018-07-03T13:59:10.333Z,46.40
2018-07-03T14:01:52.167Z,47.00
2018-07-03T14:04:26.984Z,48.50
2018-07-03T14:09:47.269Z,49.00
2018-07-03T14:12:27.114Z,48.30
2018-07-03T14:15:08.228Z,47.30
2018-07-03T14:17:47.558Z,46.70
2018-07-03T14:20:28.956Z,46.60
2018-07-03T14:23:07.250Z,46.00
2018-07-03T14:25:44.480Z,47.00
2018-07-03T14:28:24.128Z,47.30
2018-07-03T14:31:00.837Z,48.00
2018-07-03T14:33:42.628Z,48.10
2018-07-03T14:36:17.061Z,47.00
2018-07-03T14:38:53.875Z,45.50
2018-07-03T14:41:33.940Z,46.40
2018-07-03T14:44:09.292Z,45.80
2018-07-03T14:46:47.795Z,46.90
2018-07-03T14:49:28.142Z,47.40
2018-07-03T14:52:04.122Z,48.30
2018-07-03T14:54:44.142Z,48.60
2018-07-03T14:57:25.146Z,48.10
2018-07-03T15:02:39.804Z,46.20
2018-07-03T15:05:16.273Z,46.50
2018-07-03T15:07:58.811Z,48.20
2018-07-03T15:10:38.553Z,47.30
2018-07-03T15:13:16.703Z,49.50
2018-07-03T15:15:52.005Z,48.80
2018-07-03T15:18:31.434Z,47.50
2018-07-03T15:21:10.784Z,48.50
2018-07-03T15:23:53.602Z,47.60
2018-07-03T15:29:18.483Z,47.80
2018-07-03T15:32:05.020Z,48.50
2018-07-03T15:34:42.508Z,48.10
2018-07-03T15:37:25.432Z,48.50
2018-07-03T15:40:05.104Z,48.90
2018-07-03T15:42:44.021Z,49.40
2018-07-03T15:45:31.758Z,49.10
2018-07-03T15:48:12.134Z,49.50
2018-07-03T15:50:50.463Z,50.00
2018-07-03T15:56:09.460Z,48.20
2018-07-03T15:58:46.292Z,48.80
2018-07-03T16:06:20.616Z,49.80
2018-07-03T16:09:07.415Z,49.90
2018-07-03T16:11:47.476Z,51.70
2018-07-03T16:14:30.175Z,51.30
2018-07-03T16:17:08.018Z,52.60
2018-07-03T16:19:57.287Z,51.50
2018-07-03T16:22:39.877Z,50.80
2018-07-03T16:25:18.823Z,51.10
2018-07-03T16:28:00.753Z,51.50
2018-07-03T16:30:38.920Z,51.80
2018-07-03T16:33:21.544Z,52.60
2018-07-03T16:35:59.189Z,53.50
2018-07-03T16:38:34.769Z,53.30
2018-07-03T16:41:12.579Z,53.40
2018-07-03T16:43:49.122Z,53.80
2018-07-03T16:46:30.368Z,52.90
2018-07-03T16:49:08.683Z,52.50
2018-07-03T16:51:43.895Z,53.00
2018-07-03T16:54:22.626Z,52.00
2018-07-03T16:57:05.412Z,51.50
2018-07-03T17:02:18.587Z,52.10
2018-07-03T17:04:58.692Z,51.60
2018-07-03T17:07:39.315Z,52.30
2018-07-03T17:10:19.652Z,52.00
2018-07-03T17:13:06.800Z,53.10
2018-07-03T17:15:48.571Z,53.00
2018-07-03T17:18:26.149Z,53.90
2018-07-03T17:21:04.228Z,54.00
2018-07-03T17:23:48.907Z,54.50
2018-07-03T17:26:26.359Z,54.20
2018-07-03T17:29:08.645Z,54.10
2018-07-03T17:31:56.977Z,55.00
2018-07-03T17:34:45.555Z,55.50
2018-07-03T17:37:37.715Z,55.20
2018-07-03T17:40:29.804Z,55.80
2018-07-03T17:43:36.293Z,56.40
2018-07-03T17:46:27.087Z,56.70
2018-07-03T17:49:07.740Z,57.30
2018-07-03T17:51:52.752Z,57.10
2018-07-03T17:54:43.994Z,57.10
2018-07-03T17:57:37.875Z,56.40
2018-07-03T18:03:18.851Z,56.20
2018-07-03T18:06:07.188Z,58.00
2018-07-03T18:08:48.214Z,58.70
2018-07-03T18:11:35.283Z,58.50
2018-07-03T18:14:20.870Z,57.50
2018-07-03T18:17:09.420Z,56.90
2018-07-03T18:22:49.736Z,57.60
2018-07-03T18:28:28.696Z,57.80
2018-07-03T18:31:17.722Z,57.80
2018-07-03T18:33:59.723Z,58.10
2018-07-03T18:36:45.497Z,58.20
2018-07-03T18:39:36.224Z,58.10
2018-07-03T18:42:26.907Z,58.60
2018-07-03T18:45:09.191Z,59.80
2018-07-03T18:47:52.845Z,59.10
2018-07-03T18:53:33.247Z,58.10
2018-07-03T18:56:17.252Z,58.30
2018-07-03T18:59:05.343Z,58.30
2018-07-03T19:01:52.071Z,58.80
2018-07-03T19:04:38.827Z,58.70
2018-07-03T19:07:18.416Z,59.10
2018-07-03T19:10:03.595Z,59.20
2018-07-03T19:12:53.840Z,59.80
2018-07-03T19:15:44.798Z,60.70
2018-07-03T19:18:36.108Z,62.30
2018-07-03T19:21:21.761Z,61.00
2018-07-03T19:24:12.299Z,61.00
2018-07-03T19:26:59.287Z,60.30
2018-07-03T19:32:59.951Z,61.30
2018-07-03T19:35:58.694Z,61.00
2018-07-03T19:38:55.101Z,60.30
2018-07-03T19:41:43.752Z,61.40
2018-07-03T19:47:26.577Z,61.70
2018-07-03T19:50:20.576Z,61.20
2018-07-03T19:53:18.536Z,61.00
2018-07-03T19:56:10.772Z,60.90
2018-07-03T19:58:53.026Z,61.00
2018-07-03T20:01:49.397Z,61.90
2018-07-03T20:07:29.460Z,60.70
2018-07-03T20:10:19.730Z,60.70
2018-07-03T20:13:17.823Z,61.30
2018-07-03T20:16:03.719Z,61.10
2018-07-03T20:18:54.780Z,61.30
2018-07-03T20:21:46.860Z,61.20
2018-07-03T20:27:22.964Z,61.80
2018-07-03T20:30:15.919Z,62.10
2018-07-03T20:33:13.563Z,61.70
2018-07-03T20:36:08.788Z,61.90
2018-07-03T20:42:00.393Z,62.20
2018-07-03T20:47:49.303Z,62.80
2018-07-03T20:50:43.221Z,63.10
2018-07-03T20:53:46.721Z,63.60
2018-07-03T20:56:42.415Z,63.80
2018-07-03T21:02:29.757Z,63.60
2018-07-03T21:05:31.231Z,63.50
2018-07-03T21:08:27.446Z,63.70
2018-07-03T21:11:17.912Z,64.30
2018-07-03T21:17:05.768Z,65.00
2018-07-03T21:19:59.280Z,65.10
2018-07-03T21:28:44.584Z,64.10
2018-07-03T21:31:39.152Z,64.00
2018-07-03T21:34:30.589Z,64.90
2018-07-03T21:37:23.646Z,66.50
2018-07-03T21:40:18.640Z,67.00
2018-07-03T21:43:12.980Z,66.30
2018-07-03T21:51:55.453Z,66.40
2018-07-03T21:57:42.168Z,66.00
2018-07-03T22:00:47.348Z,65.40
2018-07-03T22:03:34.717Z,65.40
2018-07-03T22:06:28.276Z,64.90
2018-07-03T22:09:23.173Z,64.50
2018-07-03T22:12:20.937Z,65.00
2018-07-03T22:15:06.101Z,65.20
2018-07-03T22:18:02.464Z,65.40
2018-07-03T22:20:54.010Z,65.30
2018-07-03T22:23:54.564Z,65.60
2018-07-03T22:29:39.062Z,65.60
2018-07-03T22:35:31.225Z,66.40
2018-07-03T22:38:20.558Z,65.50
2018-07-03T22:41:13.669Z,65.10
2018-07-03T22:44:15.973Z,64.90
2018-07-03T22:47:15.943Z,65.20
2018-07-03T22:50:00.918Z,65.10
2018-07-03T22:52:54.594Z,65.20
2018-07-03T22:55:37.628Z,65.10
2018-07-03T22:58:24.611Z,65.50
2018-07-03T23:01:12.524Z,65.50
2018-07-03T23:03:58.774Z,65.80
2018-07-03T23:06:50.287Z,66.50
2018-07-03T23:09:39.309Z,67.00
2018-07-03T23:12:30.110Z,66.30
2018-07-03T23:15:18.197Z,66.40
2018-07-03T23:18:12.008Z,67.00
2018-07-03T23:23:52.939Z,66.30
2018-07-03T23:26:38.712Z,66.60
2018-07-03T23:29:26.155Z,67.20
2018-07-03T23:32:15.543Z,67.00
2018-07-03T23:35:06.116Z,66.30
2018-07-03T23:37:52.692Z,65.90
2018-07-03T23:40:36.336Z,66.70
2018-07-03T23:43:27.843Z,66.60
2018-07-03T23:46:06.830Z,66.80
2018-07-03T23:48:59.931Z,66.70
2018-07-03T23:51:55.057Z,66.50
2018-07-03T23:54:55.059Z,66.80
2018-07-03T23:57:49.875Z,66.50
